Time;durP1;ratioP1;P1;durP2;ratioP2;P2;SDS_P1;SDS_P2;PMS_P1;PMS_P2;Temp;Humidity;BMP_temperature;BMP_pressure;BME280_temperature;BME280_humidity;BME280_pressure;Samples;Min_cycle;Max_cycle;Signal;HPM_P1;HPM_P2
2022/03/25 00:02:06;;;;;;;68.40;42.50;;;;;;;10.61;60.42;102682.91;3583601;40;20059;-66
2022/03/25 00:04:32;;;;;;;66.30;42.08;;;;;;;10.50;60.28;102669.81;3581262;40;20302;-65
2022/03/25 00:06:57;;;;;;;67.85;42.13;;;;;;;10.50;60.68;102679.66;3582574;40;20063;-65
2022/03/25 00:09:23;;;;;;;70.80;42.72;;;;;;;10.47;60.16;102677.09;3583688;40;20062;-65
2022/03/25 00:11:49;;;;;;;73.47;42.95;;;;;;;10.49;60.44;102685.97;3582248;40;20055;-65
2022/03/25 00:14:14;;;;;;;67.82;42.38;;;;;;;10.44;60.21;102686.13;3583212;40;20063;-65
2022/03/25 00:16:42;;;;;;;66.60;42.60;;;;;;;10.18;60.66;102647.47;3583386;40;20052;-65
2022/03/25 00:19:08;;;;;;;71.32;43.80;;;;;;;10.29;60.72;102670.47;3583225;40;20056;-65
2022/03/25 00:21:35;;;;;;;69.88;42.22;;;;;;;10.17;61.41;102656.44;3581646;40;20056;-65
2022/03/25 00:24:00;;;;;;;73.43;43.60;;;;;;;10.28;60.44;102685.72;3580943;40;20339;-66
2022/03/25 00:26:26;;;;;;;65.38;41.42;;;;;;;10.28;61.22;102695.63;3583619;40;20048;-67
2022/03/25 00:28:52;;;;;;;67.63;41.95;;;;;;;10.17;61.13;102677.06;3581519;40;20597;-66
2022/03/25 00:31:17;;;;;;;66.88;42.40;;;;;;;10.20;61.26;102693.09;3581781;40;20056;-66
2022/03/25 00:33:44;;;;;;;67.05;42.20;;;;;;;10.13;61.78;102691.53;3581315;40;20070;-64
2022/03/25 00:36:10;;;;;;;67.40;41.53;;;;;;;9.97;61.97;102678.56;3579624;40;20374;-66
2022/03/25 00:38:36;;;;;;;69.88;43.80;;;;;;;10.05;61.41;102688.19;3579383;40;20126;-66
2022/03/25 00:41:06;;;;;;;69.95;42.60;;;;;;;10.00;61.96;102686.53;3582708;40;20346;-65
2022/03/25 00:43:34;;;;;;;65.47;42.75;;;;;;;9.87;61.64;102673.50;3583206;40;20091;-65
2022/03/25 00:46:00;;;;;;;66.60;41.88;;;;;;;9.92;61.71;102680.47;3588098;40;20048;-66
2022/03/25 00:48:27;;;;;;;68.75;42.05;;;;;;;9.86;62.31;102683.34;3577418;40;20049;-64
2022/03/25 00:50:54;;;;;;;69.03;42.67;;;;;;;9.75;62.04;102674.75;3578269;40;20060;-65
2022/03/25 00:53:20;;;;;;;70.55;42.40;;;;;;;9.83;62.36;102686.16;3578291;40;20061;-65
2022/03/25 00:55:45;;;;;;;66.18;41.85;;;;;;;9.78;61.83;102682.72;3582028;40;20058;-65
2022/03/25 00:58:11;;;;;;;70.55;43.30;;;;;;;9.64;62.14;102664.31;3580583;40;20088;-65
2022/03/25 01:00:37;;;;;;;69.55;43.08;;;;;;;9.62;62.32;102667.97;3582138;40;20154;-65
2022/03/25 01:03:03;;;;;;;73.13;42.58;;;;;;;9.65;62.11;102681.31;3580002;40;20112;-65
2022/03/25 01:05:29;;;;;;;69.28;43.08;;;;;;;9.49;62.29;102654.88;3578689;40;20389;-64
2022/03/25 01:07:55;;;;;;;67.88;42.88;;;;;;;9.54;62.57;102677.09;3579758;40;20307;-65
2022/03/25 01:10:23;;;;;;;70.93;42.55;;;;;;;9.41;62.44;102650.63;3579035;40;20092;-66
2022/03/25 01:12:49;;;;;;;68.70;42.30;;;;;;;9.50;61.71;102679.91;3582533;40;20074;-67
2022/03/25 01:15:14;;;;;;;68.85;42.10;;;;;;;9.49;62.50;102679.03;3580672;40;20383;-65
2022/03/25 01:17:40;;;;;;;69.38;39.55;;;;;;;9.47;62.80;102680.88;3580442;40;20056;-65
2022/03/25 01:20:09;;;;;;;76.07;43.08;;;;;;;9.28;62.83;102652.78;3579246;40;20048;-64
2022/03/25 01:22:34;;;;;;;70.03;42.90;;;;;;;9.38;62.60;102678.44;3589999;40;20379;-64
2022/03/25 01:25:00;;;;;;;69.57;41.85;;;;;;;9.42;62.65;102682.81;3583090;40;20057;-65
2022/03/25 01:27:26;;;;;;;69.18;42.58;;;;;;;9.38;62.62;102690.97;3584905;40;20048;-65
2022/03/25 01:29:51;;;;;;;67.68;40.80;;;;;;;9.32;62.76;102691.13;3584155;40;20406;-66
2022/03/25 01:32:17;;;;;;;71.78;42.17;;;;;;;9.14;62.33;102653.16;3584734;40;20052;-65
2022/03/25 01:34:42;;;;;;;66.72;40.53;;;;;;;9.17;62.62;102665.63;3584427;40;20338;-65
2022/03/25 01:37:09;;;;;;;61.75;39.40;;;;;;;9.26;62.56;102674.31;3584453;40;20068;-66
2022/03/25 01:39:35;;;;;;;65.40;40.47;;;;;;;9.13;62.45;102653.19;3584191;40;20060;-65
2022/03/25 01:42:01;;;;;;;66.85;39.30;;;;;;;9.24;62.57;102675.25;3584201;40;20048;-65
2022/03/25 01:44:29;;;;;;;64.75;39.95;;;;;;;9.12;62.45;102663.03;3582055;40;20055;-65
2022/03/25 01:46:59;;;;;;;66.82;39.25;;;;;;;9.16;62.39;102674.56;3583474;40;20058;-65
2022/03/25 01:49:26;;;;;;;64.72;39.38;;;;;;;9.10;62.41;102667.56;3584657;40;20045;-64
2022/03/25 01:52:02;;;;;;;65.90;38.83;;;;;;;9.06;61.85;102673.94;3582623;40;20044;-65
2022/03/25 01:54:33;;;;;;;61.35;39.00;;;;;;;8.98;62.25;102655.34;3582483;40;20383;-64
2022/03/25 01:57:06;;;;;;;60.83;37.63;;;;;;;9.05;62.18;102677.53;3583777;40;20114;-65
2022/03/25 01:59:33;;;;;;;63.47;39.03;;;;;;;8.79;62.06;102638.84;3583197;40;20064;-66
2022/03/25 02:02:02;;;;;;;64.07;39.00;;;;;;;8.96;62.41;102684.00;3579364;40;20084;-65
2022/03/25 02:04:28;;;;;;;59.17;37.67;;;;;;;8.90;62.51;102685.97;3581146;40;20059;-65
2022/03/25 02:06:54;;;;;;;64.07;39.15;;;;;;;8.87;62.64;102676.19;3581560;40;20412;-64
2022/03/25 02:09:20;;;;;;;58.22;36.05;;;;;;;8.77;62.39;102678.22;3579566;40;20041;-65
2022/03/25 02:11:46;;;;;;;58.85;36.42;;;;;;;8.78;62.32;102676.41;3583998;40;20056;-64
2022/03/25 02:14:12;;;;;;;59.60;36.40;;;;;;;8.80;61.66;102683.50;3582245;40;20411;-65
2022/03/25 02:16:43;;;;;;;57.17;34.20;;;;;;;8.11;61.63;102583.28;3579818;40;20098;-64
2022/03/25 02:19:12;;;;;;;55.45;34.80;;;;;;;8.74;61.85;102688.16;3577156;40;20063;-65
2022/03/25 02:21:41;;;;;;;61.00;34.67;;;;;;;8.73;61.07;102676.53;3580711;40;20118;-66
2022/03/25 02:24:09;;;;;;;56.60;35.75;;;;;;;8.74;61.29;102682.78;3578477;40;20060;-65
2022/03/25 02:26:36;;;;;;;59.40;34.03;;;;;;;8.71;61.30;102678.38;3580834;40;20052;-66
2022/03/25 02:29:07;;;;;;;58.45;33.28;;;;;;;8.62;60.31;102670.53;3581250;40;20066;-64
2022/03/25 02:31:34;;;;;;;54.45;31.80;;;;;;;8.62;60.14;102680.41;3579539;40;20319;-65
2022/03/25 02:34:06;;;;;;;51.25;33.03;;;;;;;8.62;59.92;102681.28;3581789;40;20056;-65
2022/03/25 02:36:41;;;;;;;51.77;31.43;;;;;;;8.57;60.43;102681.41;3580363;40;20306;-64
2022/03/25 02:39:10;;;;;;;51.28;32.25;;;;;;;8.47;60.07;102662.88;3583124;40;20079;-65
2022/03/25 02:41:36;;;;;;;52.13;31.63;;;;;;;8.52;60.04;102672.56;3582687;40;20092;-65
2022/03/25 02:44:04;;;;;;;49.95;32.00;;;;;;;8.29;60.11;102630.22;3583369;40;20091;-64
2022/03/25 02:46:29;;;;;;;51.08;31.40;;;;;;;8.53;59.54;102674.34;3588021;40;20060;-64
2022/03/25 02:48:56;;;;;;;49.58;30.13;;;;;;;8.49;58.87;102669.09;3586624;40;20294;-65
2022/03/25 02:51:22;;;;;;;47.20;30.23;;;;;;;8.24;58.84;102639.25;3590231;40;20067;-65
2022/03/25 02:53:47;;;;;;;48.85;30.42;;;;;;;8.42;59.24;102676.38;3585657;40;20064;-66
2022/03/25 02:56:13;;;;;;;50.80;30.17;;;;;;;8.36;59.15;102676.50;3583429;40;20066;-65
2022/03/25 02:58:39;;;;;;;49.15;31.08;;;;;;;8.34;59.09;102675.63;3582327;40;20052;-65
2022/03/25 03:01:06;;;;;;;47.60;30.38;;;;;;;8.30;59.53;102677.50;3581350;40;20271;-66
2022/03/25 03:03:35;;;;;;;49.95;31.58;;;;;;;8.13;59.06;102659.13;3583946;40;20060;-66
2022/03/25 03:06:01;;;;;;;50.65;30.88;;;;;;;8.22;58.73;102678.63;3582909;40;20085;-64
2022/03/25 03:08:28;;;;;;;49.50;29.83;;;;;;;8.23;58.49;102675.00;3583947;40;20052;-65
2022/03/25 03:10:54;;;;;;;48.22;30.52;;;;;;;8.15;58.92;102672.53;3583481;40;20084;-65
2022/03/25 03:13:21;;;;;;;48.00;29.85;;;;;;;8.17;58.71;102678.69;3585909;40;20413;-64
2022/03/25 03:15:48;;;;;;;51.08;32.60;;;;;;;8.01;58.64;102654.06;3582325;40;20490;-65
2022/03/25 03:18:14;;;;;;;53.03;31.80;;;;;;;8.12;58.45;102678.81;3581629;40;20057;-64
2022/03/25 03:20:42;;;;;;;50.00;31.17;;;;;;;8.06;58.58;102670.91;3582131;40;20110;-64
2022/03/25 03:23:08;;;;;;;56.92;31.63;;;;;;;8.11;58.17;102679.72;3584499;40;20373;-64
2022/03/25 03:25:35;;;;;;;51.58;31.08;;;;;;;8.07;58.46;102683.38;3584220;40;20064;-65
2022/03/25 03:28:02;;;;;;;49.20;31.15;;;;;;;8.03;59.09;102683.50;3582719;40;20091;-64
2022/03/25 03:30:28;;;;;;;51.45;31.23;;;;;;;8.00;58.73;102683.56;3584377;40;20052;-64
2022/03/25 03:32:58;;;;;;;50.78;29.55;;;;;;;7.96;59.19;102682.75;3582331;40;20446;-65
2022/03/25 03:35:26;;;;;;;50.53;31.02;;;;;;;7.44;58.71;102598.16;3577103;40;20059;-64
2022/03/25 03:37:53;;;;;;;50.70;30.67;;;;;;;7.91;59.57;102682.81;3579728;40;20106;-65
2022/03/25 03:40:20;;;;;;;50.80;31.13;;;;;;;7.87;59.24;102681.13;3578795;40;20059;-64
2022/03/25 03:42:47;;;;;;;51.13;30.27;;;;;;;7.72;58.91;102656.47;3580012;40;20052;-65
2022/03/25 03:45:14;;;;;;;51.10;31.15;;;;;;;7.81;59.22;102673.22;3577341;40;20372;-65
2022/03/25 03:47:42;;;;;;;51.65;31.50;;;;;;;7.75;59.14;102677.81;3578594;40;20469;-65
2022/03/25 03:50:13;;;;;;;47.30;30.35;;;;;;;7.72;58.96;102672.53;3579792;40;20061;-65
2022/03/25 03:52:41;;;;;;;51.55;31.25;;;;;;;7.70;59.13;102677.03;3579781;40;20050;-65
2022/03/25 03:55:09;;;;;;;49.38;30.60;;;;;;;7.59;58.64;102659.41;3578154;40;20165;-65
2022/03/25 03:57:36;;;;;;;52.47;31.85;;;;;;;7.64;59.31;102678.94;3578633;40;20048;-66
2022/03/25 04:00:12;;;;;;;49.88;31.00;;;;;;;7.63;59.17;102676.28;3577204;40;20430;-65
2022/03/25 04:02:38;;;;;;;50.15;30.95;;;;;;;7.58;59.11;102679.06;3578724;40;20410;-65
2022/03/25 04:05:05;;;;;;;51.55;31.90;;;;;;;7.56;59.11;102671.97;3577868;40;20105;-65
2022/03/25 04:07:31;;;;;;;52.25;31.23;;;;;;;7.49;58.66;102671.19;3583566;40;20063;-66
2022/03/25 04:09:57;;;;;;;48.78;29.55;;;;;;;7.44;59.20;102678.41;3582419;40;20056;-66
2022/03/25 04:12:23;;;;;;;58.03;32.15;;;;;;;7.42;59.59;102670.44;3580973;40;20310;-67
2022/03/25 04:14:48;;;;;;;52.78;31.38;;;;;;;7.43;59.36;102680.22;3581090;40;20072;-66
2022/03/25 04:17:14;;;;;;;51.50;30.88;;;;;;;7.42;58.62;102680.22;3583107;40;20063;-66
2022/03/25 04:19:40;;;;;;;53.55;32.03;;;;;;;7.36;59.73;102680.38;3582060;40;20048;-66
2022/03/25 04:22:06;;;;;;;54.05;32.03;;;;;;;7.38;59.37;102681.22;3583078;40;20072;-66
2022/03/25 04:24:33;;;;;;;53.65;32.33;;;;;;;7.31;59.00;102676.88;3584881;40;20049;-67
2022/03/25 04:26:58;;;;;;;51.10;31.05;;;;;;;7.31;58.67;102676.88;3581853;40;20060;-66
2022/03/25 04:29:24;;;;;;;56.50;32.22;;;;;;;7.09;59.20;102655.88;3582295;40;20122;-67
2022/03/25 04:31:49;;;;;;;51.92;32.70;;;;;;;7.26;59.39;102693.00;3581367;40;20059;-66
2022/03/25 04:34:15;;;;;;;52.97;33.17;;;;;;;7.10;59.51;102662.09;3599842;23;20052;-61
2022/03/25 04:36:41;;;;;;;52.95;32.78;;;;;;;7.22;59.01;102691.31;3588126;40;20064;-60
2022/03/25 04:39:06;;;;;;;54.03;32.13;;;;;;;7.16;59.46;102692.28;3590387;40;20398;-61
2022/03/25 04:41:32;;;;;;;55.45;32.35;;;;;;;7.14;59.58;102696.81;3586208;40;20051;-61
2022/03/25 04:43:57;;;;;;;54.53;32.83;;;;;;;7.12;59.77;102693.25;3587372;40;20060;-61
2022/03/25 04:46:23;;;;;;;54.50;33.10;;;;;;;7.12;59.97;102695.94;3579986;40;20060;-61
2022/03/25 04:48:49;;;;;;;55.40;33.10;;;;;;;7.11;59.67;102696.84;3578541;40;20503;-61
2022/03/25 04:51:14;;;;;;;54.88;32.97;;;;;;;7.08;59.58;102696.91;3577126;40;20276;-61
2022/03/25 04:53:40;;;;;;;55.50;32.17;;;;;;;7.07;59.76;102691.56;3579455;40;20056;-61
2022/03/25 04:56:06;;;;;;;56.22;31.10;;;;;;;7.09;59.56;102696.00;3575621;40;20060;-61
2022/03/25 04:58:31;;;;;;;50.20;30.90;;;;;;;7.06;59.40;102704.06;3577967;40;20311;-61
2022/03/25 05:00:57;;;;;;;54.78;32.50;;;;;;;7.05;59.69;102702.31;3577960;40;20052;-61
2022/03/25 05:03:23;;;;;;;58.25;33.00;;;;;;;7.00;59.63;102703.28;3576047;40;20064;-61
2022/03/25 05:05:49;;;;;;;54.88;32.78;;;;;;;6.96;60.06;102700.66;3574796;40;20056;-60
2022/03/25 05:08:17;;;;;;;53.30;32.53;;;;;;;6.91;59.96;102701.63;3574219;40;20088;-61
2022/03/25 05:10:42;;;;;;;54.83;33.40;;;;;;;6.90;60.31;102707.91;3577369;40;20044;-61
2022/03/25 05:13:11;;;;;;;53.33;32.15;;;;;;;6.87;60.34;102710.63;3572943;40;20083;-61
2022/03/25 05:15:37;;;;;;;54.97;34.60;;;;;;;6.85;59.98;102701.72;3575897;40;20040;-61
2022/03/25 05:18:03;;;;;;;55.42;32.08;;;;;;;6.81;60.36;102708.03;3575220;40;20068;-61
2022/03/25 05:20:28;;;;;;;53.05;33.63;;;;;;;6.79;60.59;102717.88;3575454;40;20056;-61
2022/03/25 05:22:54;;;;;;;56.38;32.83;;;;;;;6.73;60.29;102701.03;3576211;40;20048;-61
2022/03/25 05:25:20;;;;;;;62.65;33.83;;;;;;;6.70;60.93;102710.91;3575239;40;20090;-61
2022/03/25 05:27:53;;;;;;;57.55;33.90;;;;;;;6.61;60.76;102695.00;3579171;40;20059;-60
2022/03/25 05:30:26;;;;;;;59.47;33.28;;;;;;;6.67;60.83;102698.47;3576782;40;20056;-61
2022/03/25 05:32:52;;;;;;;52.88;33.22;;;;;;;6.65;61.07;102710.94;3576254;40;20123;-61
2022/03/25 05:35:19;;;;;;;58.90;33.55;;;;;;;6.63;60.70;102703.84;3575440;40;20145;-61
2022/03/25 05:37:45;;;;;;;52.55;33.13;;;;;;;6.64;61.17;102711.88;3577301;40;20067;-61
2022/03/25 05:40:12;;;;;;;56.08;33.55;;;;;;;6.62;60.50;102713.66;3579213;40;20112;-61
2022/03/25 05:42:39;;;;;;;51.42;31.45;;;;;;;6.60;61.23;102712.84;3575754;40;20048;-61
2022/03/25 05:45:07;;;;;;;56.13;34.15;;;;;;;6.60;61.07;102710.16;3578634;40;20081;-61
2022/03/25 05:47:36;;;;;;;57.70;35.08;;;;;;;6.55;61.38;102711.13;3578192;40;21676;-61
2022/03/25 05:50:09;;;;;;;54.17;33.03;;;;;;;6.58;61.78;102722.66;3580238;40;20060;-61
2022/03/25 05:52:35;;;;;;;57.00;33.58;;;;;;;6.57;60.70;102720.88;3577959;40;20040;-61
2022/03/25 05:55:04;;;;;;;56.35;33.03;;;;;;;6.55;61.47;102721.81;3576682;40;20060;-61
2022/03/25 05:57:30;;;;;;;54.55;33.50;;;;;;;6.56;61.68;102727.13;3575427;40;20307;-61
2022/03/25 05:59:58;;;;;;;55.70;33.70;;;;;;;6.58;61.47;102725.31;3578021;40;20056;-61
2022/03/25 06:02:26;;;;;;;63.78;35.25;;;;;;;6.59;61.36;102728.88;3577289;40;20052;-61
2022/03/25 06:04:52;;;;;;;55.00;33.72;;;;;;;6.58;61.48;102728.00;3574963;40;20080;-61
2022/03/25 06:07:18;;;;;;;56.90;34.63;;;;;;;6.32;61.63;102677.63;3576894;40;20095;-61
2022/03/25 06:09:44;;;;;;;59.83;35.28;;;;;;;6.61;61.40;102729.75;3576376;40;20051;-62
2022/03/25 06:12:11;;;;;;;57.47;33.38;;;;;;;6.54;61.59;102704.91;3580097;40;20381;-62
2022/03/25 06:14:38;;;;;;;53.33;33.45;;;;;;;6.56;61.53;102689.72;3576018;40;20110;-62
2022/03/25 06:17:05;;;;;;;55.15;34.22;;;;;;;6.97;61.06;102733.63;3574445;40;20056;-61
2022/03/25 06:19:31;;;;;;;56.55;34.70;;;;;;;7.12;60.34;102741.41;3575906;40;20048;-62
2022/03/25 06:21:57;;;;;;;56.15;35.67;;;;;;;7.24;59.67;102734.97;3576718;40;20059;-63
2022/03/25 06:24:24;;;;;;;55.28;34.40;;;;;;;7.29;59.82;102737.53;3574984;40;20134;-62
2022/03/25 06:26:50;;;;;;;57.60;36.53;;;;;;;7.29;59.22;102721.50;3577540;40;20052;-62
2022/03/25 06:29:16;;;;;;;56.35;35.05;;;;;;;7.47;59.50;102739.03;3578940;40;20055;-62
2022/03/25 06:31:41;;;;;;;57.15;35.75;;;;;;;7.51;59.06;102738.94;3576581;40;20053;-62
2022/03/25 06:34:07;;;;;;;58.72;35.78;;;;;;;7.56;58.93;102742.41;3578389;40;20387;-62
2022/03/25 06:36:33;;;;;;;57.10;35.58;;;;;;;7.62;58.85;102747.66;3583815;40;20052;-62
2022/03/25 06:38:58;;;;;;;58.85;36.45;;;;;;;7.72;58.89;102752.84;3576212;40;20071;-62
2022/03/25 06:41:24;;;;;;;57.28;36.33;;;;;;;7.81;58.91;102755.34;3576423;40;20049;-62
2022/03/25 06:43:49;;;;;;;58.90;37.28;;;;;;;7.90;59.00;102753.38;3574787;40;20060;-61
2022/03/25 06:46:17;;;;;;;57.88;37.47;;;;;;;7.98;58.70;102750.53;3577155;40;20059;-62
2022/03/25 06:48:44;;;;;;;63.00;38.25;;;;;;;8.11;58.11;102752.03;3578559;40;20083;-62
2022/03/25 06:51:11;;;;;;;67.07;39.95;;;;;;;8.04;57.66;102722.75;3580856;40;20055;-62
2022/03/25 06:53:37;;;;;;;60.05;37.35;;;;;;;8.31;57.84;102753.44;3580133;40;20103;-62
2022/03/25 06:56:04;;;;;;;59.55;38.05;;;;;;;8.40;57.71;102749.69;3578767;40;20072;-62
2022/03/25 06:58:31;;;;;;;63.05;39.63;;;;;;;8.42;57.25;102748.75;3579217;40;20044;-62
2022/03/25 07:00:58;;;;;;;66.25;40.38;;;;;;;8.45;56.73;102748.69;3574371;40;20122;-62
2022/03/25 07:03:24;;;;;;;63.97;40.10;;;;;;;8.47;57.41;102759.34;3580036;40;20051;-61
2022/03/25 07:05:52;;;;;;;63.33;39.33;;;;;;;8.45;57.66;102762.06;3578798;40;20052;-62
2022/03/25 07:08:21;;;;;;;64.13;39.97;;;;;;;8.48;57.05;102764.69;3577848;40;20059;-62
2022/03/25 07:10:48;;;;;;;62.58;40.45;;;;;;;8.49;57.53;102765.56;3577861;40;20056;-62
2022/03/25 07:13:14;;;;;;;67.60;41.38;;;;;;;8.56;57.47;102769.88;3574382;40;20045;-62
2022/03/25 07:15:40;;;;;;;62.60;41.13;;;;;;;8.61;57.29;102773.34;3575405;40;20413;-62
2022/03/25 07:18:06;;;;;;;62.50;41.25;;;;;;;8.67;57.63;102772.34;3577209;40;20053;-62
2022/03/25 07:20:32;;;;;;;66.55;41.97;;;;;;;8.77;58.22;102768.50;3576312;40;20060;-62
2022/03/25 07:22:58;;;;;;;68.10;40.90;;;;;;;8.99;57.18;102774.25;3574906;40;21255;-62
2022/03/25 07:25:25;;;;;;;67.63;41.63;;;;;;;9.23;57.21;102768.31;3574596;40;20060;-62
2022/03/25 07:27:51;;;;;;;70.05;44.78;;;;;;;9.27;56.16;102734.22;3574665;40;20056;-62
2022/03/25 07:30:18;;;;;;;67.60;43.78;;;;;;;9.83;55.06;102772.09;3578230;40;20051;-62
2022/03/25 07:32:45;;;;;;;65.00;42.47;;;;;;;10.19;54.15;102788.09;3576116;40;20078;-62
2022/03/25 07:35:11;;;;;;;70.38;42.50;;;;;;;10.48;53.93;102778.34;3574854;40;20047;-62
2022/03/25 07:37:41;;;;;;;62.13;40.53;;;;;;;10.78;51.89;102776.50;3575964;40;20122;-62
2022/03/25 07:40:10;;;;;;;63.08;43.25;;;;;;;11.08;51.81;102780.03;3574833;40;20088;-64
2022/03/25 07:42:37;;;;;;;68.47;43.65;;;;;;;11.33;51.41;102789.06;3577099;40;20104;-63
2022/03/25 07:45:05;;;;;;;64.50;44.08;;;;;;;11.57;50.06;102784.63;3573735;40;20068;-63
2022/03/25 07:47:32;;;;;;;66.00;42.97;;;;;;;11.76;50.15;102787.56;3575392;40;20052;-63
2022/03/25 07:50:00;;;;;;;64.25;42.58;;;;;;;11.94;49.64;102795.97;3575274;40;20064;-62
2022/03/25 07:52:25;;;;;;;66.60;43.58;;;;;;;12.20;48.87;102795.00;3574531;40;20380;-62
2022/03/25 07:54:51;;;;;;;66.60;43.83;;;;;;;12.42;47.80;102798.66;3581806;40;20075;-63
2022/03/25 07:57:16;;;;;;;64.47;43.58;;;;;;;12.62;47.58;102795.19;3577250;40;20057;-63
2022/03/25 07:59:42;;;;;;;63.67;43.05;;;;;;;12.57;47.91;102772.03;3574491;40;20053;-63
2022/03/25 08:02:08;;;;;;;62.58;43.20;;;;;;;13.00;46.94;102812.59;3574493;40;20055;-63
2022/03/25 08:04:33;;;;;;;62.30;42.40;;;;;;;13.16;46.09;102814.66;3575485;40;20059;-63
2022/03/25 08:06:59;;;;;;;63.85;44.17;;;;;;;13.33;45.81;102817.59;3578316;40;20067;-63
2022/03/25 08:09:25;;;;;;;64.45;44.65;;;;;;;13.28;45.29;102791.69;3575995;40;20049;-63
2022/03/25 08:11:50;;;;;;;61.40;44.25;;;;;;;13.53;45.08;102819.44;3577120;40;20288;-63
2022/03/25 08:14:17;;;;;;;65.57;42.78;;;;;;;13.64;44.40;102822.56;3578580;40;20058;-63
2022/03/25 08:16:44;;;;;;;63.72;43.22;;;;;;;13.84;43.71;102823.53;3577884;40;20103;-63
2022/03/25 08:19:11;;;;;;;65.30;44.47;;;;;;;13.98;44.43;102798.56;3574774;40;20435;-63
2022/03/25 08:21:37;;;;;;;61.90;44.42;;;;;;;14.25;42.83;102818.97;3579498;40;20044;-63
2022/03/25 08:29:32;;;;;;;63.15;41.80;;;;;;;14.66;40.99;102827.06;3578213;40;20047;-63
2022/03/25 08:31:57;;;;;;;64.90;41.38;;;;;;;14.82;39.84;102829.91;3576675;40;21370;-63
2022/03/25 08:34:23;;;;;;;63.35;42.22;;;;;;;14.91;40.52;102834.88;3577463;40;20098;-63
2022/03/25 08:36:50;;;;;;;55.05;39.38;;;;;;;15.00;39.48;102826.31;3575776;40;20102;-63
2022/03/25 08:39:17;;;;;;;59.92;39.35;;;;;;;15.07;38.60;102833.19;3579640;40;20048;-63
2022/03/25 08:41:43;;;;;;;57.00;40.05;;;;;;;15.26;39.04;102837.72;3575788;40;20427;-63
2022/03/25 08:44:10;;;;;;;58.38;39.42;;;;;;;15.48;38.30;102835.69;3579146;40;20116;-63
2022/03/25 08:46:37;;;;;;;59.80;38.90;;;;;;;15.15;37.49;102773.22;3578444;40;20052;-63
2022/03/25 08:49:04;;;;;;;57.45;38.33;;;;;;;15.43;37.76;102817.88;3576299;40;20067;-63
2022/03/25 08:51:30;;;;;;;57.13;39.65;;;;;;;15.54;37.68;102842.63;3579364;40;20394;-63
2022/03/25 08:53:56;;;;;;;57.28;38.92;;;;;;;15.73;37.69;102843.47;3574516;40;20068;-63
2022/03/25 08:56:24;;;;;;;56.58;39.70;;;;;;;15.99;37.28;102835.81;3573770;40;20056;-63
2022/03/25 08:58:54;;;;;;;58.92;39.30;;;;;;;16.14;37.15;102843.16;3574340;40;20060;-63
2022/03/25 09:01:22;;;;;;;55.80;40.05;;;;;;;16.21;36.74;102846.41;3574153;40;20055;-63
2022/03/25 09:03:48;;;;;;;58.67;40.15;;;;;;;16.27;37.46;102840.66;3576609;40;20054;-61
2022/03/25 09:06:13;;;;;;;52.83;37.95;;;;;;;16.58;36.34;102841.69;3573688;40;20048;-63
2022/03/25 09:08:39;;;;;;;56.13;38.15;;;;;;;16.72;36.08;102852.69;3574245;40;20048;-61
2022/03/25 09:11:04;;;;;;;50.55;37.00;;;;;;;16.76;36.12;102853.41;3574695;40;20056;-61
2022/03/25 09:13:30;;;;;;;53.08;38.97;;;;;;;16.80;36.93;102850.44;3576251;40;20413;-61
2022/03/25 09:15:56;;;;;;;58.58;38.58;;;;;;;16.82;35.76;102845.81;3576908;40;20060;-60
2022/03/25 09:18:21;;;;;;;53.35;38.10;;;;;;;16.99;35.25;102860.28;3573227;40;20045;-61
2022/03/25 09:20:47;;;;;;;54.30;37.80;;;;;;;17.01;36.90;102844.78;3574589;40;20058;-61
2022/03/25 09:23:13;;;;;;;51.47;37.83;;;;;;;17.12;35.81;102859.47;3578809;40;20057;-61
2022/03/25 09:25:40;;;;;;;52.55;37.08;;;;;;;17.25;35.01;102856.94;3576065;40;20095;-63
2022/03/25 09:28:06;;;;;;;50.80;36.60;;;;;;;17.49;34.41;102864.66;3580529;40;20068;-61
2022/03/25 09:30:32;;;;;;;51.67;37.63;;;;;;;17.67;33.58;102858.13;3576288;40;20064;-63
2022/03/25 09:32:58;;;;;;;53.55;38.55;;;;;;;17.68;33.80;102854.44;3577256;40;20068;-63
2022/03/25 09:35:23;;;;;;;48.55;36.00;;;;;;;17.74;34.85;102859.50;3578848;40;20059;-60
2022/03/25 09:37:51;;;;;;;52.25;37.03;;;;;;;17.73;33.29;102852.31;3578944;40;20083;-60
2022/03/25 09:40:25;;;;;;;49.90;36.35;;;;;;;17.95;33.59;102862.81;3577104;40;20552;-61
2022/03/25 09:42:58;;;;;;;43.40;33.35;;;;;;;18.05;33.97;102863.16;3576391;40;20049;-61
2022/03/25 09:45:26;;;;;;;50.90;33.83;;;;;;;17.99;33.03;102842.63;3576044;40;20063;-61
2022/03/25 09:47:55;;;;;;;48.10;34.78;;;;;;;18.10;32.79;102859.16;3577013;40;20469;-60
2022/03/25 09:50:24;;;;;;;51.13;34.42;;;;;;;18.15;33.78;102849.84;3578552;40;20056;-60
2022/03/25 09:52:52;;;;;;;51.45;32.58;;;;;;;18.18;32.27;102852.38;3577236;40;20072;-61
2022/03/25 09:55:18;;;;;;;43.50;29.88;;;;;;;18.30;32.31;102852.50;3576901;40;20053;-60
2022/03/25 09:57:44;;;;;;;50.92;29.90;;;;;;;18.38;31.42;102848.41;3577421;40;20069;-61
2022/03/25 10:00:18;;;;;;;46.50;31.77;;;;;;;18.38;32.25;102846.56;3578771;40;20056;-61
2022/03/25 10:02:45;;;;;;;46.95;32.58;;;;;;;18.48;31.99;102850.44;3577870;40;20048;-63
2022/03/25 10:05:19;;;;;;;45.50;31.10;;;;;;;18.63;31.37;102847.72;3574918;40;20546;-61
2022/03/25 10:07:52;;;;;;;47.70;30.70;;;;;;;18.71;31.56;102845.38;3576613;40;20279;-60
2022/03/25 10:10:29;;;;;;;45.28;31.50;;;;;;;18.84;31.89;102851.84;3575493;40;20419;-61
2022/03/25 10:13:05;;;;;;;47.40;29.95;;;;;;;18.91;32.29;102842.28;3577244;40;20365;-61
2022/03/25 10:15:38;;;;;;;45.15;30.48;;;;;;;19.11;29.93;102843.69;3578515;40;20044;-61
2022/03/25 10:18:08;;;;;;;46.72;31.33;;;;;;;19.30;30.39;102842.50;3578307;40;20049;-62
2022/03/25 10:20:34;;;;;;;44.47;30.83;;;;;;;19.42;30.07;102845.28;3577140;40;20056;-61
2022/03/25 10:23:11;;;;;;;44.60;31.23;;;;;;;19.46;32.83;102838.63;3576573;40;20082;-61
2022/03/25 10:25:41;;;;;;;41.72;29.77;;;;;;;19.46;31.37;102829.56;3576504;40;20090;-61
2022/03/25 10:28:31;;;;;;;34.50;25.17;;;;;;;19.63;28.38;102826.59;3578289;40;20052;-61
2022/03/25 10:31:02;;;;;;;35.47;24.70;;;;;;;19.59;27.82;102841.38;3577551;40;20067;-61
2022/03/25 10:33:43;;;;;;;39.30;25.77;;;;;;;19.61;28.01;102839.44;3579281;40;20130;-61
2022/03/25 10:36:11;;;;;;;39.00;26.58;;;;;;;19.84;27.74;102837.03;3576459;40;20044;-61
2022/03/25 10:38:48;;;;;;;41.70;26.85;;;;;;;19.96;28.29;102827.97;3575908;40;20056;-62
2022/03/25 10:41:22;;;;;;;34.92;24.45;;;;;;;20.08;27.16;102820.78;3574667;40;20068;-62
2022/03/25 10:44:03;;;;;;;35.25;25.15;;;;;;;20.16;27.25;102821.97;3580541;40;20120;-59
2022/03/25 10:46:45;;;;;;;39.10;25.25;;;;;;;20.34;27.69;102825.28;3575312;40;20388;-60
2022/03/25 10:49:15;;;;;;;47.55;26.75;;;;;;;20.55;27.53;102822.00;3575339;40;20053;-61
2022/03/25 10:52:01;;;;;;;33.00;22.25;;;;;;;20.71;25.91;102828.13;3582826;40;20056;-61
2022/03/25 10:54:28;;;;;;;32.63;20.77;;;;;;;20.82;25.57;102822.72;3575761;40;20052;-61
2022/03/25 10:57:00;;;;;;;34.17;22.17;;;;;;;20.92;25.23;102825.66;3576360;40;20057;-61
2022/03/25 10:59:32;;;;;;;30.55;19.33;;;;;;;20.97;25.56;102833.53;3575118;40;20052;-61
2022/03/25 11:02:03;;;;;;;31.80;20.73;;;;;;;21.12;25.15;102826.03;3574646;40;20060;-61
2022/03/25 11:04:29;;;;;;;33.03;19.33;;;;;;;21.05;26.12;102807.34;3577232;40;20055;-61
2022/03/25 11:07:01;;;;;;;27.15;18.58;;;;;;;21.26;26.29;102826.75;3574621;40;20058;-61
2022/03/25 11:09:27;;;;;;;34.38;21.27;;;;;;;21.38;24.02;102824.97;3574346;40;20395;-61
2022/03/25 11:11:56;;;;;;;27.70;19.77;;;;;;;21.40;24.50;102830.31;3575807;40;20101;-60
2022/03/25 11:14:22;;;;;;;37.88;22.45;;;;;;;21.40;24.74;102819.38;3575461;40;20065;-62
2022/03/25 11:17:00;;;;;;;33.33;22.35;;;;;;;21.51;24.67;102819.44;3574927;40;20056;-61
2022/03/25 11:19:27;;;;;;;36.22;23.52;;;;;;;21.77;25.87;102828.38;3575551;40;20485;-61
2022/03/25 11:21:55;;;;;;;32.88;23.90;;;;;;;21.82;25.08;102820.69;3576293;40;20056;-61